Time;durP1;ratioP1;P1;durP2;ratioP2;P2;SDS_P1;SDS_P2;PMS_P1;PMS_P2;Temp;Humidity;BMP_temperature;BMP_pressure;BME280_temperature;BME280_humidity;BME280_pressure;Samples;Min_cycle;Max_cycle;Signal;HPM_P1;HPM_P2
2022/01/03 00:00:01;;;;;;;15.82;8.48;;;6.20;99.90;;;;;;5028241;28;20491;-80
2022/01/03 00:02:27;;;;;;;16.13;8.82;;;6.30;99.90;;;;;;5029423;28;20026;-80
2022/01/03 00:04:53;;;;;;;16.58;9.18;;;6.30;99.90;;;;;;5027902;28;20018;-80
2022/01/03 00:07:19;;;;;;;17.55;9.25;;;6.10;99.90;;;;;;5029221;28;20057;-80
2022/01/03 00:09:45;;;;;;;19.50;8.80;;;6.10;99.90;;;;;;5029635;28;20518;-82
2022/01/03 00:12:11;;;;;;;15.45;9.20;;;6.10;99.90;;;;;;5029303;28;20057;-81
2022/01/03 00:14:37;;;;;;;14.27;8.23;;;6.10;99.90;;;;;;5029231;28;20037;-81
2022/01/03 00:17:03;;;;;;;14.40;8.65;;;6.20;99.90;;;;;;5028841;28;20658;-80
2022/01/03 00:19:28;;;;;;;15.25;8.40;;;6.30;99.90;;;;;;5028541;28;20075;-81
2022/01/03 00:21:57;;;;;;;15.82;9.13;;;6.30;99.90;;;;;;5028743;28;20079;-80
2022/01/03 00:24:33;;;;;;;14.57;8.25;;;6.30;99.90;;;;;;5030721;28;20013;-80
2022/01/03 00:27:17;;;;;;;16.42;8.73;;;6.20;99.90;;;;;;5028921;28;20033;-80
2022/01/03 00:29:50;;;;;;;14.88;8.82;;;6.20;99.90;;;;;;5028393;28;20029;-80
2022/01/03 00:32:21;;;;;;;17.40;9.60;;;6.10;99.90;;;;;;5027076;28;20448;-80
2022/01/03 00:34:51;;;;;;;16.27;8.13;;;6.10;99.90;;;;;;5028389;28;20025;-80
2022/01/03 00:37:21;;;;;;;16.10;8.57;;;6.10;99.90;;;;;;5028136;28;20090;-80
2022/01/03 00:39:47;;;;;;;15.15;8.55;;;6.10;99.90;;;;;;5027607;28;20032;-80
2022/01/03 00:42:14;;;;;;;15.93;8.68;;;6.10;99.90;;;;;;5028499;28;20029;-81
2022/01/03 00:44:42;;;;;;;18.45;9.20;;;5.90;99.90;;;;;;5026767;28;20030;-81
2022/01/03 00:47:10;;;;;;;17.45;8.60;;;5.90;99.90;;;;;;5028547;28;20025;-81
2022/01/03 00:49:40;;;;;;;17.92;8.20;;;5.90;99.90;;;;;;5026160;28;20029;-81
2022/01/03 00:52:06;;;;;;;14.00;8.70;;;6.00;99.90;;;;;;5014265;28;20094;-81
2022/01/03 00:54:32;;;;;;;14.73;9.13;;;6.00;99.90;;;;;;5030236;28;20021;-81
2022/01/03 00:57:11;;;;;;;15.77;9.00;;;6.00;99.90;;;;;;5044065;28;20052;-80
2022/01/03 01:00:02;;;;;;;18.45;9.30;;;6.00;99.90;;;;;;5028259;28;20025;-80
2022/01/03 01:02:34;;;;;;;14.93;9.15;;;6.00;99.90;;;;;;5028356;28;20083;-80
2022/01/03 01:05:01;;;;;;;18.75;9.90;;;6.00;99.90;;;;;;5028245;28;20028;-80
2022/01/03 01:07:30;;;;;;;16.60;9.52;;;5.90;99.90;;;;;;5025922;28;20103;-80
2022/01/03 01:10:00;;;;;;;21.05;10.43;;;5.90;99.90;;;;;;5027815;28;20422;-80
2022/01/03 01:12:26;;;;;;;20.35;9.45;;;6.00;99.90;;;;;;5029764;28;20067;-80
2022/01/03 01:14:52;;;;;;;18.02;9.55;;;5.90;99.90;;;;;;5027434;28;20051;-80
2022/01/03 01:17:17;;;;;;;19.42;10.38;;;5.80;99.90;;;;;;5027418;28;20499;-80
2022/01/03 01:19:44;;;;;;;15.77;8.98;;;5.90;99.90;;;;;;5059748;28;20032;-80
2022/01/03 01:22:10;;;;;;;16.10;9.73;;;5.90;99.90;;;;;;5026296;28;20026;-80
2022/01/03 01:24:46;;;;;;;15.80;9.25;;;5.80;99.90;;;;;;5028555;28;20387;-80
2022/01/03 01:29:56;;;;;;;14.23;9.38;;;5.80;99.90;;;;;;5027412;28;20177;-80
2022/01/03 01:32:25;;;;;;;21.23;9.77;;;5.80;99.90;;;;;;5025141;28;20112;-80
2022/01/03 01:34:53;;;;;;;19.60;9.95;;;5.80;99.90;;;;;;5025541;28;20029;-80
2022/01/03 01:37:20;;;;;;;20.17;10.80;;;5.60;99.90;;;;;;5027366;28;20121;-80
2022/01/03 01:39:48;;;;;;;18.90;10.77;;;5.80;99.90;;;;;;5021207;28;20048;-80
2022/01/03 01:42:17;;;;;;;20.60;11.07;;;5.70;99.90;;;;;;5027774;28;20091;-80
2022/01/03 01:44:48;;;;;;;17.08;9.80;;;5.60;99.90;;;;;;5026095;28;20563;-79
2022/01/03 01:47:14;;;;;;;18.35;10.38;;;5.60;99.90;;;;;;5027259;28;20045;-80
2022/01/03 01:49:44;;;;;;;17.80;9.50;;;5.60;99.90;;;;;;5027779;28;20418;-79
2022/01/03 01:52:21;;;;;;;18.55;9.32;;;5.50;99.90;;;;;;5015123;28;20525;-80
2022/01/03 01:54:57;;;;;;;17.35;9.25;;;5.60;99.90;;;;;;5024408;28;20029;-80
2022/01/03 01:57:49;;;;;;;19.38;9.98;;;5.60;99.90;;;;;;5028327;28;20108;-80
2022/01/03 02:00:15;;;;;;;18.55;10.48;;;5.50;99.90;;;;;;5024771;28;20091;-80
2022/01/03 02:03:06;;;;;;;18.52;10.30;;;5.50;99.90;;;;;;5027038;28;20183;-81
2022/01/03 02:05:35;;;;;;;17.30;10.68;;;5.40;99.90;;;;;;5023250;28;20038;-81
2022/01/03 02:08:01;;;;;;;23.13;11.90;;;5.40;99.90;;;;;;5053720;28;20048;-81
2022/01/03 02:10:34;;;;;;;20.30;10.45;;;5.40;99.90;;;;;;5027430;28;20533;-81
2022/01/03 02:13:00;;;;;;;21.17;11.05;;;5.50;99.90;;;;;;5026332;28;20100;-81
2022/01/03 02:15:26;;;;;;;17.65;10.30;;;5.50;99.90;;;;;;5028916;28;20061;-81
2022/01/03 02:17:52;;;;;;;20.25;11.52;;;5.50;99.90;;;;;;5027089;28;20102;-81
2022/01/03 02:20:24;;;;;;;21.90;11.02;;;5.60;99.90;;;;;;5025983;28;20499;-81
2022/01/03 02:22:50;;;;;;;17.45;10.13;;;5.60;99.90;;;;;;5023063;28;20024;-82
2022/01/03 02:25:18;;;;;;;20.38;10.55;;;5.70;99.90;;;;;;5025329;28;20022;-82
2022/01/03 02:27:46;;;;;;;18.88;9.57;;;5.80;99.90;;;;;;5025667;28;20017;-81
2022/01/03 02:30:15;;;;;;;20.40;9.75;;;5.80;99.90;;;;;;5028883;28;20060;-81
2022/01/03 02:32:41;;;;;;;17.38;8.98;;;5.70;99.90;;;;;;5024914;28;20028;-82
2022/01/03 02:35:08;;;;;;;18.23;9.15;;;5.80;99.90;;;;;;5026083;28;20092;-81
2022/01/03 02:37:34;;;;;;;18.10;9.98;;;5.80;99.90;;;;;;5026826;28;20030;-81
2022/01/03 02:40:00;;;;;;;18.15;9.07;;;5.70;99.90;;;;;;5027322;28;20025;-81
2022/01/03 02:42:26;;;;;;;14.68;8.10;;;5.50;99.90;;;;;;5027504;28;20490;-80
2022/01/03 02:45:22;;;;;;;14.65;7.68;;;5.50;99.90;;;;;;5026929;28;20029;-80
2022/01/03 02:47:58;;;;;;;15.15;7.10;;;5.60;99.90;;;;;;5023621;28;20549;-80
2022/01/03 02:50:25;;;;;;;14.25;7.38;;;5.60;99.90;;;;;;5029416;28;20040;-80
2022/01/03 02:52:51;;;;;;;14.63;6.80;;;5.60;99.90;;;;;;5027195;28;20025;-80
2022/01/03 02:55:17;;;;;;;13.35;6.90;;;5.50;99.90;;;;;;5028053;28;20033;-80
2022/01/03 02:57:46;;;;;;;14.32;7.20;;;5.40;99.90;;;;;;5031450;28;20026;-80
2022/01/03 03:00:19;;;;;;;11.13;6.82;;;5.50;99.90;;;;;;5032653;28;20379;-80
2022/01/03 03:02:46;;;;;;;13.93;7.55;;;5.50;99.90;;;;;;5030237;28;20036;-80
2022/01/03 03:05:12;;;;;;;11.48;7.68;;;5.60;99.90;;;;;;5029459;28;20510;-80
2022/01/03 03:07:40;;;;;;;11.75;6.22;;;5.60;99.90;;;;;;5030617;28;20053;-80
2022/01/03 03:10:11;;;;;;;10.52;6.22;;;5.50;99.90;;;;;;5030408;28;20545;-80
2022/01/03 03:12:38;;;;;;;11.18;6.82;;;5.50;99.90;;;;;;5030618;28;20049;-81
2022/01/03 03:15:05;;;;;;;12.55;6.05;;;5.60;99.90;;;;;;5031602;28;20029;-81
2022/01/03 03:17:31;;;;;;;10.60;6.38;;;5.40;99.90;;;;;;5029827;28;20120;-81
2022/01/03 03:20:06;;;;;;;10.75;5.82;;;5.30;99.90;;;;;;5030175;28;20021;-80
2022/01/03 03:22:32;;;;;;;8.60;6.13;;;5.40;99.90;;;;;;5030561;28;20025;-80
2022/01/03 03:25:17;;;;;;;10.75;6.45;;;5.40;99.90;;;;;;5028109;28;20018;-80
2022/01/03 03:27:46;;;;;;;10.65;5.80;;;5.40;99.90;;;;;;5028204;28;20507;-80
2022/01/03 03:30:24;;;;;;;8.85;5.35;;;5.50;99.90;;;;;;5030259;28;20026;-80
2022/01/03 03:32:53;;;;;;;9.68;5.65;;;5.40;99.90;;;;;;5029987;28;20091;-80
2022/01/03 03:35:20;;;;;;;9.82;5.65;;;5.40;99.90;;;;;;5029990;28;20030;-81
2022/01/03 03:37:46;;;;;;;10.02;6.07;;;5.30;99.90;;;;;;5029715;28;20021;-81
2022/01/03 03:40:12;;;;;;;8.75;5.53;;;5.30;99.90;;;;;;5029740;28;20156;-81
2022/01/03 03:42:39;;;;;;;7.78;5.35;;;5.30;99.90;;;;;;5030042;28;20030;-81
2022/01/03 03:45:06;;;;;;;8.82;5.53;;;5.30;99.90;;;;;;5029892;28;20096;-81
2022/01/03 03:47:33;;;;;;;8.43;5.15;;;5.30;99.90;;;;;;5026188;28;20049;-81
2022/01/03 03:49:59;;;;;;;9.15;5.40;;;5.30;99.90;;;;;;5028763;28;20080;-81
2022/01/03 03:52:25;;;;;;;8.68;5.80;;;5.30;99.90;;;;;;5029836;28;20033;-81
2022/01/03 03:54:51;;;;;;;8.13;5.07;;;5.20;99.90;;;;;;5027991;28;20033;-81
2022/01/03 03:57:16;;;;;;;8.23;4.90;;;5.10;99.90;;;;;;5030457;28;20030;-81
2022/01/03 03:59:42;;;;;;;8.57;5.43;;;5.20;99.90;;;;;;5028118;28;20071;-80
2022/01/03 04:02:08;;;;;;;7.88;4.72;;;5.20;99.90;;;;;;5022353;28;20029;-81
2022/01/03 04:04:34;;;;;;;7.40;5.43;;;5.10;99.90;;;;;;5027371;28;20044;-81
2022/01/03 04:07:00;;;;;;;10.18;5.50;;;5.10;99.90;;;;;;5029025;28;20038;-81
2022/01/03 04:09:26;;;;;;;9.13;5.30;;;5.10;99.90;;;;;;5030796;28;20025;-81
2022/01/03 04:11:52;;;;;;;10.98;5.78;;;5.10;99.90;;;;;;5029421;28;20621;-81
2022/01/03 04:14:18;;;;;;;16.98;6.97;;;5.10;99.90;;;;;;5028829;28;20029;-81
2022/01/03 04:16:44;;;;;;;15.40;7.97;;;5.10;99.90;;;;;;5028639;28;20533;-81
2022/01/03 04:19:09;;;;;;;11.68;7.00;;;5.10;99.90;;;;;;5028698;28;20025;-82
2022/01/03 04:21:37;;;;;;;12.80;7.78;;;5.10;99.90;;;;;;5030300;28;20017;-82
2022/01/03 04:24:04;;;;;;;15.82;6.93;;;5.10;99.90;;;;;;5024644;28;20514;-81
2022/01/03 04:26:31;;;;;;;14.25;7.28;;;5.00;99.90;;;;;;5027492;28;20036;-81
2022/01/03 04:28:56;;;;;;;13.77;6.43;;;5.00;99.90;;;;;;5059935;28;20034;-82
2022/01/03 04:31:22;;;;;;;13.45;6.75;;;5.10;99.90;;;;;;5027275;28;20022;-80
2022/01/03 04:33:48;;;;;;;14.18;6.97;;;5.10;99.90;;;;;;5028608;28;20098;-81
2022/01/03 04:36:14;;;;;;;12.95;6.70;;;5.10;99.90;;;;;;5024891;28;20586;-82
2022/01/03 04:38:40;;;;;;;12.63;7.18;;;5.00;99.90;;;;;;5028214;28;20022;-81
2022/01/03 04:41:06;;;;;;;14.48;7.38;;;5.00;99.90;;;;;;5028406;28;20391;-82
2022/01/03 04:43:33;;;;;;;11.43;5.72;;;5.00;99.90;;;;;;5028761;28;20025;-81
2022/01/03 04:46:00;;;;;;;11.02;6.47;;;4.90;99.90;;;;;;5028546;28;20065;-81
2022/01/03 04:48:26;;;;;;;13.18;6.40;;;4.80;99.90;;;;;;5029099;28;20029;-81
2022/01/03 04:50:51;;;;;;;10.45;6.57;;;4.80;99.90;;;;;;5026562;28;20040;-81
2022/01/03 04:53:17;;;;;;;9.82;5.80;;;4.80;99.90;;;;;;5023121;28;20030;-81
2022/01/03 04:55:43;;;;;;;12.45;5.68;;;4.90;99.90;;;;;;5025652;28;20030;-80
2022/01/03 04:58:10;;;;;;;10.13;6.35;;;4.90;99.90;;;;;;5027342;28;20036;-81
2022/01/03 05:00:39;;;;;;;10.65;5.90;;;4.80;99.90;;;;;;5029230;28;20044;-81
2022/01/03 05:03:05;;;;;;;12.43;6.85;;;4.80;99.90;;;;;;5029498;28;20052;-80
2022/01/03 05:05:31;;;;;;;11.18;6.05;;;4.80;99.90;;;;;;5027899;28;20060;-81
2022/01/03 05:07:56;;;;;;;12.48;6.10;;;4.80;99.90;;;;;;5026478;28;20507;-80
2022/01/03 05:10:22;;;;;;;8.35;5.80;;;4.80;99.90;;;;;;5026294;28;20029;-80
2022/01/03 05:12:48;;;;;;;9.88;6.00;;;4.70;99.90;;;;;;5028683;28;20498;-80
2022/01/03 05:15:13;;;;;;;12.77;6.20;;;4.60;99.90;;;;;;5029743;28;20520;-80
2022/01/03 05:17:39;;;;;;;11.25;6.22;;;4.70;99.90;;;;;;5026985;28;20511;-80
2022/01/03 05:20:05;;;;;;;10.65;6.60;;;4.70;99.90;;;;;;5027346;28;20079;-80
2022/01/03 05:22:31;;;;;;;11.10;6.18;;;4.70;99.90;;;;;;5026561;28;20092;-80
2022/01/03 05:24:57;;;;;;;10.43;5.90;;;4.70;99.90;;;;;;5027472;28;20036;-80
2022/01/03 05:27:22;;;;;;;10.90;6.03;;;4.60;99.90;;;;;;5028083;28;20022;-80
2022/01/03 05:29:48;;;;;;;10.10;6.00;;;4.60;99.90;;;;;;5028027;28;20029;-79
2022/01/03 05:32:14;;;;;;;9.00;5.40;;;4.60;99.90;;;;;;5027607;28;20499;-79
2022/01/03 05:34:39;;;;;;;12.25;5.43;;;4.60;99.90;;;;;;5026066;28;20113;-79
2022/01/03 05:37:05;;;;;;;10.05;5.55;;;4.60;99.90;;;;;;5027802;28;20403;-79
2022/01/03 05:39:31;;;;;;;10.10;5.88;;;4.70;99.90;;;;;;5027873;28;20029;-79
2022/01/03 05:41:57;;;;;;;11.27;5.75;;;4.60;99.90;;;;;;5027568;28;20017;-79
2022/01/03 05:44:23;;;;;;;10.68;5.60;;;4.50;99.90;;;;;;5027228;28;20030;-80
2022/01/03 05:46:49;;;;;;;11.20;5.63;;;4.20;99.90;;;;;;5026884;28;20507;-80
2022/01/03 05:49:15;;;;;;;8.30;4.93;;;4.30;99.90;;;;;;5026538;28;20029;-79
2022/01/03 05:51:40;;;;;;;10.13;4.90;;;4.50;99.90;;;;;;5027787;28;20040;-79
2022/01/03 05:54:06;;;;;;;9.77;5.55;;;4.40;99.90;;;;;;5015197;28;20557;-79
2022/01/03 05:56:32;;;;;;;9.95;5.80;;;4.50;99.90;;;;;;5027175;28;20029;-79
2022/01/03 05:58:57;;;;;;;7.25;4.78;;;4.50;99.90;;;;;;5027499;28;20055;-80
2022/01/03 06:01:24;;;;;;;9.27;4.75;;;4.50;99.90;;;;;;5027995;28;20033;-81
2022/01/03 06:03:59;;;;;;;6.72;4.18;;;4.50;99.90;;;;;;5027860;28;20021;-81
2022/01/03 06:09:11;;;;;;;7.88;5.10;;;4.60;99.90;;;;;;5028374;28;20048;-81
2022/01/03 06:11:37;;;;;;;9.20;5.45;;;4.50;99.90;;;;;;5027270;28;20029;-81
2022/01/03 06:14:02;;;;;;;6.90;4.60;;;4.60;99.90;;;;;;5025564;28;20108;-80
2022/01/03 06:16:28;;;;;;;8.68;4.55;;;4.60;99.90;;;;;;5026852;28;20049;-80
2022/01/03 06:18:54;;;;;;;8.30;4.55;;;4.50;99.90;;;;;;5027294;28;20494;-80
2022/01/03 06:21:20;;;;;;;8.88;5.10;;;4.60;99.90;;;;;;5031232;28;20402;-80
2022/01/03 06:23:46;;;;;;;7.55;4.05;;;4.50;99.90;;;;;;5031011;28;20021;-80
2022/01/03 06:26:12;;;;;;;6.65;4.20;;;4.50;99.90;;;;;;5029527;28;20465;-80
2022/01/03 06:28:38;;;;;;;7.22;4.20;;;4.60;99.90;;;;;;5022581;28;20033;-80
2022/01/03 06:31:04;;;;;;;6.93;4.32;;;4.50;99.90;;;;;;5028304;28;20025;-79
2022/01/03 06:33:29;;;;;;;9.10;5.10;;;4.60;99.90;;;;;;5029256;28;20064;-80
2022/01/03 06:35:55;;;;;;;6.75;4.80;;;4.60;99.90;;;;;;5029428;28;20518;-79
2022/01/03 06:38:21;;;;;;;6.35;4.45;;;4.50;99.90;;;;;;5027370;28;20572;-79
2022/01/03 06:40:46;;;;;;;6.05;4.22;;;4.50;99.90;;;;;;5025496;28;20026;-81
2022/01/03 06:43:12;;;;;;;6.78;4.40;;;4.50;99.90;;;;;;5030923;28;20227;-80
2022/01/03 06:45:38;;;;;;;7.05;4.97;;;4.40;99.90;;;;;;5029287;28;20511;-80
2022/01/03 06:48:04;;;;;;;9.68;5.40;;;4.30;99.90;;;;;;5031604;28;20411;-80
2022/01/03 06:50:31;;;;;;;9.70;5.68;;;4.20;99.90;;;;;;5030334;28;20021;-80
2022/01/03 06:52:57;;;;;;;9.38;4.93;;;4.20;99.90;;;;;;5030228;28;20030;-80
2022/01/03 06:55:23;;;;;;;8.27;4.90;;;4.30;99.90;;;;;;5029100;28;20526;-80
2022/01/03 06:57:49;;;;;;;9.40;5.18;;;4.30;99.90;;;;;;5030392;28;20032;-80
2022/01/03 07:00:16;;;;;;;9.27;5.95;;;4.30;99.90;;;;;;5031601;28;20056;-80
2022/01/03 07:02:43;;;;;;;7.65;5.25;;;4.30;99.90;;;;;;5028924;28;20134;-80
2022/01/03 07:05:12;;;;;;;7.55;4.88;;;4.30;99.90;;;;;;5026653;28;20028;-81
2022/01/03 07:07:39;;;;;;;8.02;5.32;;;4.50;99.90;;;;;;5029611;28;20112;-81
2022/01/03 07:10:05;;;;;;;9.45;4.75;;;4.30;99.90;;;;;;5025475;28;20029;-80
2022/01/03 07:12:31;;;;;;;8.85;5.38;;;4.30;99.90;;;;;;5032404;28;20033;-80
2022/01/03 07:20:09;;;;;;;10.02;6.05;;;4.30;99.90;;;;;;5030267;28;20091;-80
2022/01/03 07:22:39;;;;;;;9.25;6.00;;;4.50;99.90;;;;;;5028546;28;20507;-80
2022/01/03 07:25:07;;;;;;;7.60;5.05;;;4.30;99.90;;;;;;5027345;28;20022;-78
2022/01/03 07:27:32;;;;;;;7.75;4.85;;;4.20;99.90;;;;;;5027695;28;20029;-78
2022/01/03 07:29:58;;;;;;;8.38;5.38;;;4.20;99.90;;;;;;5023110;28;20075;-82
2022/01/03 07:32:24;;;;;;;10.75;6.38;;;4.20;99.90;;;;;;5027641;28;20037;-77
2022/01/03 07:34:49;;;;;;;9.77;6.55;;;4.00;99.90;;;;;;5026297;28;20030;-79
2022/01/03 07:37:15;;;;;;;9.20;5.07;;;4.10;99.90;;;;;;5019546;28;20526;-88
2022/01/03 07:39:42;;;;;;;9.70;5.95;;;4.20;99.90;;;;;;5027448;28;20056;-84
2022/01/03 07:42:08;;;;;;;8.23;5.20;;;4.20;99.90;;;;;;5026099;28;20029;-83
2022/01/03 07:44:34;;;;;;;9.02;5.38;;;4.20;99.90;;;;;;5029557;28;20026;-83
2022/01/03 07:47:00;;;;;;;9.10;5.10;;;4.10;99.90;;;;;;5030180;28;20052;-82
2022/01/03 07:49:26;;;;;;;8.55;5.40;;;4.20;99.90;;;;;;5028980;28;20021;-82
2022/01/03 07:51:52;;;;;;;10.82;5.15;;;4.20;99.90;;;;;;5025845;28;20044;-83
2022/01/03 07:54:18;;;;;;;11.20;6.32;;;4.20;99.90;;;;;;5021968;28;20487;-83
2022/01/03 07:56:44;;;;;;;11.85;5.97;;;4.20;99.90;;;;;;5029587;28;20071;-84
2022/01/03 07:59:10;;;;;;;10.90;6.60;;;4.40;99.90;;;;;;5029653;28;20413;-86
2022/01/03 08:01:37;;;;;;;10.68;7.10;;;4.30;99.90;;;;;;5028709;28;20053;-86
2022/01/03 08:04:03;;;;;;;10.13;7.57;;;4.40;99.90;;;;;;5030103;28;20032;-85
2022/01/03 08:06:29;;;;;;;11.13;7.22;;;4.10;99.90;;;;;;5021657;28;20030;-83
2022/01/03 08:08:55;;;;;;;11.32;7.57;;;4.00;99.90;;;;;;5022965;28;20025;-83
2022/01/03 08:11:20;;;;;;;11.65;7.60;;;4.20;99.90;;;;;;5029791;28;20116;-83
2022/01/03 08:13:46;;;;;;;11.30;7.38;;;4.30;99.90;;;;;;5029545;28;20041;-81
2022/01/03 08:16:12;;;;;;;11.77;7.80;;;4.40;99.90;;;;;;5029333;28;20113;-83
2022/01/03 08:18:37;;;;;;;11.90;7.70;;;4.40;99.90;;;;;;5030233;28;20025;-90
2022/01/03 08:21:03;;;;;;;11.65;7.55;;;4.50;99.90;;;;;;5030047;28;20021;-80
2022/01/03 08:23:30;;;;;;;12.20;7.13;;;4.60;99.90;;;;;;5029831;28;20661;-85
2022/01/03 08:25:56;;;;;;;11.52;7.05;;;4.70;99.90;;;;;;5029322;28;20041;-85
2022/01/03 08:28:22;;;;;;;10.75;6.55;;;5.00;99.90;;;;;;5030105;28;20468;-89
2022/01/03 08:30:47;;;;;;;11.13;7.10;;;5.00;99.90;;;;;;5023144;28;20375;-84
2022/01/03 08:33:13;;;;;;;11.13;7.10;;;4.90;99.90;;;;;;5028668;28;20029;-86
2022/01/03 08:35:39;;;;;;;14.30;7.15;;;5.00;99.90;;;;;;5025930;28;20112;-86
2022/01/03 08:38:05;;;;;;;12.68;7.70;;;4.90;99.90;;;;;;5027695;28;20118;-80
2022/01/03 08:40:31;;;;;;;11.13;7.00;;;5.00;99.90;;;;;;5029683;28;20089;-84
2022/01/03 08:42:58;;;;;;;13.38;6.03;;;5.40;99.90;;;;;;5029748;28;20061;-83
2022/01/03 08:45:24;;;;;;;10.43;6.70;;;5.40;99.90;;;;;;5030248;28;20238;-84
2022/01/03 08:47:50;;;;;;;11.05;7.60;;;5.30;99.90;;;;;;5022884;28;20037;-84
2022/01/03 08:50:17;;;;;;;14.90;8.68;;;5.40;99.90;;;;;;5027489;28;20037;-84
2022/01/03 08:52:46;;;;;;;14.40;9.50;;;5.50;99.90;;;;;;5026168;28;20025;-88
2022/01/03 08:55:12;;;;;;;14.82;9.60;;;5.30;99.90;;;;;;5028377;28;20017;-84
2022/01/03 08:57:38;;;;;;;13.60;8.75;;;5.60;99.90;;;;;;5036158;28;20036;-82
2022/01/03 09:00:05;;;;;;;16.75;10.32;;;5.70;99.90;;;;;;5029715;28;20403;-85
2022/01/03 09:02:31;;;;;;;14.73;8.77;;;5.80;99.90;;;;;;5011051;28;20116;-85
2022/01/03 09:04:56;;;;;;;14.40;7.72;;;6.10;99.90;;;;;;5028726;28;20105;-84
2022/01/03 09:07:22;;;;;;;12.77;7.25;;;6.50;99.90;;;;;;5027946;28;20052;-86
2022/01/03 09:09:48;;;;;;;14.55;7.90;;;6.50;99.90;;;;;;5026776;28;20397;-82
2022/01/03 09:12:14;;;;;;;9.25;6.25;;;7.20;99.90;;;;;;5029486;28;20044;-84
2022/01/03 09:14:39;;;;;;;11.98;7.00;;;8.00;99.90;;;;;;5028455;28;20033;-80
2022/01/03 09:17:05;;;;;;;12.30;7.13;;;8.60;99.90;;;;;;5026204;28;20029;-82
2022/01/03 09:19:31;;;;;;;11.68;6.68;;;9.00;99.90;;;;;;5024171;28;20030;-79
2022/01/03 09:22:13;;;;;;;11.55;5.78;;;9.70;99.90;;;;;;5028038;28;20273;-84
2022/01/03 09:24:52;;;;;;;8.02;5.50;;;9.20;99.90;;;;;;5028324;28;20017;-83
2022/01/03 09:30:05;;;;;;;11.63;6.13;;;7.10;99.90;;;;;;5021857;28;20091;-87
2022/01/03 09:32:31;;;;;;;10.13;6.22;;;7.10;99.90;;;;;;5027419;28;20043;-85
2022/01/03 09:34:57;;;;;;;7.20;5.22;;;7.00;99.90;;;;;;5025945;28;20025;-84
2022/01/03 09:37:23;;;;;;;7.88;5.75;;;7.00;99.90;;;;;;5028451;28;20041;-84
2022/01/03 09:39:50;;;;;;;10.80;5.63;;;7.00;99.90;;;;;;5026177;28;20054;-83
2022/01/03 09:42:26;;;;;;;6.90;4.88;;;7.00;99.90;;;;;;5027527;28;20022;-83
2022/01/03 09:44:51;;;;;;;8.27;6.00;;;7.10;99.90;;;;;;5027291;28;20518;-87
2022/01/03 09:47:19;;;;;;;7.72;5.13;;;7.10;99.90;;;;;;5026467;28;20033;-83
2022/01/03 09:49:46;;;;;;;8.43;5.15;;;7.30;99.90;;;;;;5026809;28;20099;-82
2022/01/03 09:52:12;;;;;;;7.07;4.60;;;7.40;99.90;;;;;;5026447;28;20029;-85
2022/01/03 09:54:38;;;;;;;12.57;5.47;;;7.50;99.90;;;;;;5026221;28;20022;-85
2022/01/03 09:57:06;;;;;;;10.25;4.93;;;7.50;99.90;;;;;;5027670;28;20112;-84
2022/01/03 09:59:32;;;;;;;9.18;5.43;;;7.60;99.90;;;;;;5026695;28;20061;-84
2022/01/03 10:02:00;;;;;;;7.40;5.53;;;7.60;99.90;;;;;;5027098;28;20052;-84
2022/01/03 10:04:26;;;;;;;10.05;5.18;;;7.70;99.90;;;;;;5027540;28;20029;-83
2022/01/03 10:06:52;;;;;;;10.77;5.30;;;7.90;99.90;;;;;;5018296;28;20140;-81
2022/01/03 10:09:20;;;;;;;7.68;5.18;;;8.00;99.90;;;;;;5032414;28;20433;-89
2022/01/03 10:11:46;;;;;;;10.95;5.82;;;8.10;99.90;;;;;;5032445;28;20048;-91
2022/01/03 10:14:12;;;;;;;9.70;5.43;;;8.10;99.90;;;;;;5025660;28;20030;-85
2022/01/03 10:16:43;;;;;;;10.52;6.50;;;8.40;99.90;;;;;;5027973;28;20029;-89
2022/01/03 10:19:09;;;;;;;7.53;5.18;;;8.40;99.90;;;;;;5026923;28;20022;-89
2022/01/03 10:21:44;;;;;;;12.07;5.75;;;8.50;99.90;;;;;;5028412;28;20036;-88
2022/01/03 10:24:12;;;;;;;10.02;5.72;;;8.50;99.90;;;;;;5028519;28;20032;-90
2022/01/03 10:26:38;;;;;;;13.15;6.40;;;8.50;99.90;;;;;;5022795;28;20052;-88
2022/01/03 10:29:14;;;;;;;9.82;5.90;;;8.50;99.90;;;;;;5027156;28;20025;-84
2022/01/03 10:31:43;;;;;;;10.95;5.57;;;8.60;99.90;;;;;;5027244;28;20609;-86
2022/01/03 10:34:12;;;;;;;10.98;6.25;;;8.60;99.90;;;;;;5027529;28;20037;-86
2022/01/03 10:36:40;;;;;;;14.38;6.18;;;8.50;99.90;;;;;;5027400;28;20018;-85
2022/01/03 10:39:20;;;;;;;16.27;6.60;;;8.60;99.90;;;;;;5027503;28;20084;-88
2022/01/03 10:41:48;;;;;;;11.02;5.25;;;8.60;99.90;;;;;;5028198;28;20080;-86
2022/01/03 10:44:31;;;;;;;9.27;5.70;;;8.80;99.90;;;;;;5037041;28;20039;-84
2022/01/03 10:46:57;;;;;;;12.32;7.07;;;8.90;99.90;;;;;;5028828;28;20045;-85
2022/01/03 10:49:25;;;;;;;9.07;6.32;;;9.10;99.90;;;;;;5025605;28;20063;-85
2022/01/03 10:51:51;;;;;;;11.00;6.88;;;9.20;99.90;;;;;;5022569;28;20022;-88
2022/01/03 10:54:18;;;;;;;8.88;5.85;;;9.20;99.90;;;;;;5029370;28;20033;-85
2022/01/03 10:56:50;;;;;;;10.02;5.65;;;9.40;99.90;;;;;;5029549;28;20029;-88
2022/01/03 10:59:25;;;;;;;14.13;7.18;;;9.40;99.90;;;;;;5030735;28;20566;-80
2022/01/03 11:01:56;;;;;;;9.98;5.50;;;9.60;99.90;;;;;;5027232;28;20557;-80
2022/01/03 11:04:47;;;;;;;9.65;5.60;;;9.80;99.90;;;;;;5026737;28;20022;-80
2022/01/03 11:13:07;;;;;;;15.85;6.25;;;10.00;99.90;;;;;;5026655;28;20032;-80
2022/01/03 11:15:33;;;;;;;9.27;4.90;;;10.00;99.90;;;;;;5027380;28;20448;-81
2022/01/03 11:18:20;;;;;;;11.82;5.20;;;10.10;99.90;;;;;;5033531;28;20144;-82
2022/01/03 11:21:16;;;;;;;7.97;4.97;;;10.20;99.90;;;;;;5035305;28;20025;-80
2022/01/03 11:24:00;;;;;;;8.05;4.78;;;10.10;99.90;;;;;;5032069;28;20605;-85
2022/01/03 11:26:28;;;;;;;7.75;4.60;;;10.30;99.90;;;;;;5026733;28;20100;-82
2022/01/03 11:28:55;;;;;;;8.40;5.20;;;10.40;99.90;;;;;;5029396;28;20029;-81
2022/01/03 11:31:21;;;;;;;9.75;4.80;;;10.40;99.90;;;;;;5030292;28;20036;-82
2022/01/03 11:33:51;;;;;;;11.27;5.38;;;10.60;99.90;;;;;;5027885;28;20025;-81
2022/01/03 11:36:20;;;;;;;8.52;4.50;;;10.80;99.90;;;;;;5030352;28;20083;-82
2022/01/03 11:38:46;;;;;;;9.93;5.18;;;10.80;99.90;;;;;;5029658;28;20025;-82
2022/01/03 11:41:13;;;;;;;10.35;5.10;;;10.90;99.90;;;;;;5029562;28;20021;-81
2022/01/03 11:43:41;;;;;;;9.68;4.60;;;11.00;99.90;;;;;;5026111;28;20152;-82
2022/01/03 11:46:07;;;;;;;6.15;3.90;;;10.80;99.90;;;;;;5029586;28;20046;-82
2022/01/03 11:48:34;;;;;;;5.65;2.92;;;10.80;99.90;;;;;;5030171;28;20028;-82
2022/01/03 11:51:09;;;;;;;5.25;3.33;;;11.10;99.90;;;;;;5029270;28;20033;-82
2022/01/03 11:53:41;;;;;;;6.72;3.58;;;11.20;99.90;;;;;;5042279;28;20069;-81
2022/01/03 11:56:10;;;;;;;6.18;2.95;;;11.10;99.90;;;;;;5024448;28;20033;-82
2022/01/03 12:03:58;;;;;;;11.32;4.10;;;11.10;99.90;;;;;;5029230;28;20055;-83
2022/01/03 12:06:43;;;;;;;5.28;2.97;;;11.30;99.90;;;;;;5031614;28;20022;-83
2022/01/03 12:09:15;;;;;;;5.38;2.58;;;11.20;99.90;;;;;;5030836;28;20025;-83
2022/01/03 12:11:54;;;;;;;12.48;2.80;;;11.30;99.90;;;;;;5027312;28;20030;-83
2022/01/03 12:14:22;;;;;;;7.78;2.30;;;11.50;99.90;;;;;;5029287;28;20041;-83
2022/01/03 12:16:53;;;;;;;5.28;2.35;;;11.50;99.90;;;;;;5028181;28;20398;-83
2022/01/03 12:19:28;;;;;;;5.32;2.67;;;11.50;99.90;;;;;;5054860;28;20033;-83
2022/01/03 12:22:06;;;;;;;6.88;2.65;;;11.60;99.90;;;;;;5028148;28;20025;-83
2022/01/03 12:24:32;;;;;;;6.32;2.55;;;11.80;99.90;;;;;;5026835;28;20052;-83
2022/01/03 12:27:10;;;;;;;6.43;2.42;;;11.70;99.90;;;;;;5028258;28;20033;-83
2022/01/03 12:29:54;;;;;;;6.30;3.60;;;11.80;99.90;;;;;;5024396;28;20582;-83
2022/01/03 12:32:26;;;;;;;6.10;2.80;;;11.70;99.90;;;;;;5025894;28;20026;-86
2022/01/03 12:35:10;;;;;;;8.18;2.85;;;11.80;99.90;;;;;;5026912;28;20021;-83
2022/01/03 12:37:54;;;;;;;7.07;3.05;;;11.80;99.90;;;;;;5018485;28;20104;-85
2022/01/03 12:40:27;;;;;;;5.28;2.95;;;12.00;99.90;;;;;;5028525;28;20055;-84
2022/01/03 12:43:11;;;;;;;7.47;2.30;;;11.80;99.90;;;;;;5029264;28;20029;-87
2022/01/03 12:45:36;;;;;;;7.32;2.95;;;11.80;99.90;;;;;;5030491;28;20513;-85
2022/01/03 12:48:11;;;;;;;5.95;2.75;;;11.90;99.90;;;;;;5029296;28;20456;-83
2022/01/03 12:51:05;;;;;;;6.85;2.47;;;12.10;99.90;;;;;;5026032;28;20104;-85
2022/01/03 12:53:30;;;;;;;5.90;2.53;;;12.10;99.90;;;;;;5025855;28;20033;-85
2022/01/03 12:56:11;;;;;;;4.32;2.60;;;11.90;99.90;;;;;;5027187;28;20029;-85
2022/01/03 12:58:39;;;;;;;9.38;2.95;;;12.00;99.90;;;;;;5017009;28;20040;-85
2022/01/03 13:01:27;;;;;;;5.05;2.97;;;12.00;99.90;;;;;;5023825;28;20065;-82
2022/01/03 13:03:55;;;;;;;8.23;3.25;;;12.20;99.90;;;;;;5027010;28;20022;-82
2022/01/03 13:06:27;;;;;;;4.53;2.63;;;12.30;99.90;;;;;;5030737;28;20078;-83
2022/01/03 13:08:55;;;;;;;9.90;2.85;;;12.20;99.90;;;;;;5026541;28;20030;-82
2022/01/03 13:11:31;;;;;;;3.38;2.20;;;12.30;99.90;;;;;;5028620;28;20509;-83
2022/01/03 13:14:00;;;;;;;9.82;3.45;;;12.30;99.90;;;;;;5027656;28;20118;-84
2022/01/03 13:16:33;;;;;;;5.78;3.10;;;12.40;99.90;;;;;;5026435;28;20038;-84
2022/01/03 13:19:07;;;;;;;6.72;3.20;;;12.40;99.90;;;;;;5027757;28;20033;-83